Time;durP1;ratioP1;P1;durP2;ratioP2;P2;SDS_P1;SDS_P2;PMS_P1;PMS_P2;Temp;Humidity;BMP_temperature;BMP_pressure;BME280_temperature;BME280_humidity;BME280_pressure;Samples;Min_cycle;Max_cycle;Signal;HPM_P1;HPM_P2
2023/05/13 00:00:03;;;;;;;7.82;3.40;;;;;;;;;;4974177;28;20033;-63
2023/05/13 00:02:28;;;;;;;6.55;3.25;;;;;;;;;;4974181;28;20031;-67
2023/05/13 00:04:54;;;;;;;9.57;3.30;;;;;;;;;;4974116;28;20114;-64
2023/05/13 00:07:19;;;;;;;5.72;3.17;;;;;;;;;;4973780;28;20039;-65
2023/05/13 00:09:45;;;;;;;8.40;3.40;;;;;;;;;;4974149;28;20030;-68
2023/05/13 00:12:10;;;;;;;6.97;3.25;;;;;;;;;;4974007;28;20415;-68
2023/05/13 00:14:35;;;;;;;5.07;3.38;;;;;;;;;;4973893;28;20114;-68
2023/05/13 00:17:03;;;;;;;7.68;3.40;;;;;;;;;;4973798;28;20358;-64
2023/05/13 00:19:29;;;;;;;9.32;3.53;;;;;;;;;;4973722;28;20066;-66
2023/05/13 00:21:54;;;;;;;9.48;3.42;;;;;;;;;;4992847;28;20023;-68
2023/05/13 00:24:20;;;;;;;7.07;3.53;;;;;;;;;;5012827;28;20026;-68
2023/05/13 00:26:46;;;;;;;5.25;3.38;;;;;;;;;;5012921;28;20080;-68
2023/05/13 00:29:11;;;;;;;11.25;3.40;;;;;;;;;;5012752;28;20033;-65
2023/05/13 00:31:37;;;;;;;7.82;3.25;;;;;;;;;;5012858;28;20092;-64
2023/05/13 00:34:03;;;;;;;7.57;3.30;;;;;;;;;;5012754;28;20034;-65
2023/05/13 00:36:28;;;;;;;11.23;3.40;;;;;;;;;;5005555;28;20030;-66
2023/05/13 00:38:54;;;;;;;4.75;3.30;;;;;;;;;;4994598;28;20472;-64
2023/05/13 00:41:21;;;;;;;8.70;5.13;;;;;;;;;;4997056;28;20109;-64
2023/05/13 00:43:46;;;;;;;18.90;10.27;;;;;;;;;;4997142;28;20073;-66
2023/05/13 00:46:13;;;;;;;8.68;3.63;;;;;;;;;;4997223;28;20050;-67
2023/05/13 00:48:39;;;;;;;6.57;3.00;;;;;;;;;;4996989;28;20026;-63
2023/05/13 00:51:04;;;;;;;7.38;3.67;;;;;;;;;;4996822;28;20057;-66
2023/05/13 00:53:32;;;;;;;7.45;3.47;;;;;;;;;;4997078;28;20464;-66
2023/05/13 00:55:57;;;;;;;8.18;3.80;;;;;;;;;;4993248;28;20034;-67
2023/05/13 00:58:23;;;;;;;6.07;3.40;;;;;;;;;;4977444;28;20023;-67
2023/05/13 01:01:13;;;;;;;5.65;3.80;;;;;;;;;;4977393;28;20049;-66
2023/05/13 01:03:56;;;;;;;7.05;3.17;;;;;;;;;;4977326;28;20027;-67
2023/05/13 01:07:12;;;;;;;7.38;3.80;;;;;;;;;;4977224;28;20081;-67
2023/05/13 01:10:04;;;;;;;8.93;3.67;;;;;;;;;;4936543;29;20500;-64
2023/05/13 01:12:33;;;;;;;8.20;3.72;;;;;;;;;;4936615;29;20521;-65
2023/05/13 01:15:08;;;;;;;7.75;3.53;;;;;;;;;;4936434;29;20036;-65
2023/05/13 01:17:42;;;;;;;5.45;3.30;;;;;;;;;;4936458;29;20042;-64
2023/05/13 01:20:09;;;;;;;11.80;3.72;;;;;;;;;;4943573;29;20035;-64
2023/05/13 01:22:34;;;;;;;6.05;3.55;;;;;;;;;;4955588;28;20031;-64
2023/05/13 01:25:00;;;;;;;7.63;3.28;;;;;;;;;;4955548;28;20042;-64
2023/05/13 01:27:25;;;;;;;8.73;3.47;;;;;;;;;;4955519;29;20122;-64
2023/05/13 01:29:52;;;;;;;7.60;3.45;;;;;;;;;;4955479;29;20583;-64
2023/05/13 01:32:18;;;;;;;14.48;3.78;;;;;;;;;;4955385;29;20071;-68
2023/05/13 01:34:45;;;;;;;6.07;3.42;;;;;;;;;;4955214;28;20440;-67
2023/05/13 01:37:10;;;;;;;6.13;3.58;;;;;;;;;;4955216;28;20113;-66
2023/05/13 01:39:37;;;;;;;6.68;3.85;;;;;;;;;;4955155;28;20127;-66
2023/05/13 01:42:03;;;;;;;9.57;3.80;;;;;;;;;;4955134;29;20043;-63
2023/05/13 01:44:28;;;;;;;6.45;3.67;;;;;;;;;;4955174;28;20035;-63
2023/05/13 01:46:54;;;;;;;8.10;3.55;;;;;;;;;;4991023;28;20043;-66
2023/05/13 01:49:19;;;;;;;8.73;3.53;;;;;;;;;;4995418;28;20075;-64
2023/05/13 01:51:45;;;;;;;10.82;3.78;;;;;;;;;;4994917;28;20085;-66
2023/05/13 01:54:10;;;;;;;7.63;3.30;;;;;;;;;;4995921;28;20029;-65
2023/05/13 01:56:36;;;;;;;7.75;3.67;;;;;;;;;;4991346;28;20050;-65
2023/05/13 01:59:01;;;;;;;7.97;3.80;;;;;;;;;;4976167;28;20404;-63
2023/05/13 02:01:26;;;;;;;7.20;3.65;;;;;;;;;;4976411;28;20069;-64
2023/05/13 02:03:52;;;;;;;11.45;3.88;;;;;;;;;;4975973;28;20066;-65
2023/05/13 02:06:18;;;;;;;6.65;3.83;;;;;;;;;;4976258;28;20079;-63
2023/05/13 02:08:44;;;;;;;12.32;4.05;;;;;;;;;;4976128;28;20038;-63
2023/05/13 02:11:09;;;;;;;7.68;3.40;;;;;;;;;;4976163;28;20034;-64
2023/05/13 02:13:35;;;;;;;6.80;3.70;;;;;;;;;;4976137;28;20109;-68
2023/05/13 02:16:00;;;;;;;5.60;3.72;;;;;;;;;;4976002;28;20030;-66
2023/05/13 02:18:26;;;;;;;6.50;3.88;;;;;;;;;;4975590;28;20354;-63
2023/05/13 02:20:51;;;;;;;9.35;4.05;;;;;;;;;;4982671;28;20381;-66
2023/05/13 02:23:16;;;;;;;10.57;3.83;;;;;;;;;;4995283;28;20034;-65
2023/05/13 02:25:42;;;;;;;6.63;3.95;;;;;;;;;;5012253;28;20046;-64
2023/05/13 02:28:08;;;;;;;6.85;4.00;;;;;;;;;;5014873;28;20037;-67
2023/05/13 02:30:33;;;;;;;9.70;3.90;;;;;;;;;;5014836;28;20359;-64
2023/05/13 02:33:00;;;;;;;9.63;4.05;;;;;;;;;;5014575;28;20049;-65
2023/05/13 02:35:28;;;;;;;8.43;4.00;;;;;;;;;;5014748;28;20025;-64
2023/05/13 02:37:54;;;;;;;6.75;3.97;;;;;;;;;;4995877;28;20436;-67
2023/05/13 02:40:20;;;;;;;6.05;3.45;;;;;;;;;;4995069;28;20069;-67
2023/05/13 02:42:45;;;;;;;7.05;3.40;;;;;;;;;;4995100;28;20054;-67
2023/05/13 02:45:10;;;;;;;7.68;3.92;;;;;;;;;;4994988;28;20476;-67
2023/05/13 02:47:36;;;;;;;7.32;4.05;;;;;;;;;;4994570;28;20087;-67
2023/05/13 02:50:04;;;;;;;6.97;3.80;;;;;;;;;;4994590;28;20134;-65
2023/05/13 02:52:30;;;;;;;6.10;4.07;;;;;;;;;;4994669;28;20129;-64
2023/05/13 02:54:55;;;;;;;10.48;3.75;;;;;;;;;;4994645;28;20476;-68
2023/05/13 02:57:21;;;;;;;9.55;4.00;;;;;;;;;;4985554;28;20038;-67
2023/05/13 02:59:46;;;;;;;6.68;3.78;;;;;;;;;;4974941;28;20031;-64
2023/05/13 03:02:12;;;;;;;9.05;3.80;;;;;;;;;;4975081;28;20499;-68
2023/05/13 03:04:37;;;;;;;11.30;4.03;;;;;;;;;;4975135;28;20058;-67
2023/05/13 03:07:03;;;;;;;7.43;4.38;;;;;;;;;;4974799;28;20109;-67
2023/05/13 03:09:28;;;;;;;7.43;3.70;;;;;;;;;;4975106;28;20161;-68
2023/05/13 03:11:53;;;;;;;7.68;3.95;;;;;;;;;;4974798;28;20035;-68
2023/05/13 03:14:19;;;;;;;5.35;3.72;;;;;;;;;;4974871;28;20034;-67
2023/05/13 03:16:45;;;;;;;7.72;3.75;;;;;;;;;;4974776;28;20035;-67
2023/05/13 03:19:10;;;;;;;7.40;4.18;;;;;;;;;;4974383;28;20084;-67
2023/05/13 03:21:35;;;;;;;6.85;3.90;;;;;;;;;;4987625;28;20117;-67
2023/05/13 03:24:01;;;;;;;7.30;3.90;;;;;;;;;;4994292;28;20060;-68
2023/05/13 03:26:26;;;;;;;8.38;3.88;;;;;;;;;;5011533;28;20490;-64
2023/05/13 03:28:52;;;;;;;10.10;3.88;;;;;;;;;;5013552;28;20443;-64
2023/05/13 03:31:17;;;;;;;9.65;4.50;;;;;;;;;;5013596;28;20029;-63
2023/05/13 03:33:42;;;;;;;13.32;5.18;;;;;;;;;;5013589;28;20069;-67
2023/05/13 03:36:08;;;;;;;14.00;5.40;;;;;;;;;;5009210;28;20030;-67
2023/05/13 03:38:34;;;;;;;7.53;4.15;;;;;;;;;;4993728;28;20510;-67
2023/05/13 03:40:59;;;;;;;4.90;3.88;;;;;;;;;;4993793;28;20444;-67
2023/05/13 03:43:24;;;;;;;5.78;4.00;;;;;;;;;;4993656;28;20033;-67
2023/05/13 03:45:50;;;;;;;6.45;3.55;;;;;;;;;;4993735;28;20108;-68
2023/05/13 03:48:16;;;;;;;10.65;4.20;;;;;;;;;;4993742;28;20104;-67
2023/05/13 03:50:42;;;;;;;7.72;3.80;;;;;;;;;;4993662;28;20139;-67
2023/05/13 03:53:10;;;;;;;7.97;3.70;;;;;;;;;;4993559;28;20480;-67
2023/05/13 03:55:35;;;;;;;10.85;3.85;;;;;;;;;;4993671;28;20045;-67
2023/05/13 03:58:10;;;;;;;9.32;3.88;;;;;;;;;;4984487;28;20480;-66
2023/05/13 04:00:35;;;;;;;6.10;3.72;;;;;;;;;;4974261;28;20446;-66
2023/05/13 04:03:01;;;;;;;7.22;3.97;;;;;;;;;;4973819;28;20157;-66
2023/05/13 04:05:26;;;;;;;8.48;3.97;;;;;;;;;;4974110;28;20117;-66
2023/05/13 04:07:51;;;;;;;9.75;4.03;;;;;;;;;;4973908;28;20033;-65
2023/05/13 04:10:17;;;;;;;6.80;3.97;;;;;;;;;;4972852;28;20434;-63
2023/05/13 04:12:42;;;;;;;5.90;3.75;;;;;;;;;;4973624;28;20147;-64
2023/05/13 04:15:08;;;;;;;10.07;4.15;;;;;;;;;;4973634;28;20034;-64
2023/05/13 04:17:33;;;;;;;6.65;3.88;;;;;;;;;;4973893;28;20484;-67
2023/05/13 04:19:59;;;;;;;8.38;3.80;;;;;;;;;;4973485;28;20373;-66
2023/05/13 04:22:24;;;;;;;7.65;4.32;;;;;;;;;;4993277;28;20487;-67
2023/05/13 04:24:55;;;;;;;7.97;3.83;;;;;;;;;;4993126;28;20495;-67
2023/05/13 04:27:21;;;;;;;8.27;4.20;;;;;;;;;;5007432;28;20521;-67
2023/05/13 04:29:46;;;;;;;12.45;4.22;;;;;;;;;;5012764;28;20112;-67
2023/05/13 04:32:14;;;;;;;7.05;3.63;;;;;;;;;;5012725;28;20037;-67
2023/05/13 04:34:40;;;;;;;9.55;3.70;;;;;;;;;;5012798;28;20026;-68
2023/05/13 04:37:05;;;;;;;7.18;3.90;;;;;;;;;;5000656;28;20105;-68
2023/05/13 04:39:31;;;;;;;6.30;3.97;;;;;;;;;;4993193;28;20030;-64
2023/05/13 04:41:56;;;;;;;8.88;4.03;;;;;;;;;;4992958;28;20026;-64
2023/05/13 04:44:22;;;;;;;9.13;4.13;;;;;;;;;;4993104;28;20440;-64
2023/05/13 04:46:47;;;;;;;11.68;3.83;;;;;;;;;;4992970;28;20105;-66
2023/05/13 04:49:12;;;;;;;6.88;4.03;;;;;;;;;;4992904;28;20081;-64
2023/05/13 04:51:38;;;;;;;9.00;4.00;;;;;;;;;;4992564;28;20030;-65
2023/05/13 04:54:03;;;;;;;6.20;3.92;;;;;;;;;;4993038;28;20596;-64
2023/05/13 04:56:29;;;;;;;10.23;4.35;;;;;;;;;;4992776;28;20026;-64
2023/05/13 04:58:54;;;;;;;9.43;3.88;;;;;;;;;;4987639;28;20476;-67
2023/05/13 05:01:19;;;;;;;8.02;3.80;;;;;;;;;;4973456;28;20097;-67
2023/05/13 05:03:45;;;;;;;7.82;3.85;;;;;;;;;;4973430;28;20034;-67
2023/05/13 05:06:10;;;;;;;9.20;4.22;;;;;;;;;;4973488;28;20023;-66
2023/05/13 05:08:36;;;;;;;8.10;3.95;;;;;;;;;;4973342;28;20019;-66
2023/05/13 05:11:01;;;;;;;10.82;4.20;;;;;;;;;;4972998;28;20031;-67
2023/05/13 05:13:26;;;;;;;7.30;3.80;;;;;;;;;;4973435;28;20023;-67
2023/05/13 05:15:52;;;;;;;6.70;4.03;;;;;;;;;;4973308;28;20037;-65
2023/05/13 05:18:17;;;;;;;6.10;4.00;;;;;;;;;;4973312;28;20034;-64
2023/05/13 05:20:43;;;;;;;6.63;3.95;;;;;;;;;;4978852;28;20113;-67
2023/05/13 05:23:09;;;;;;;7.68;4.32;;;;;;;;;;4992860;28;20030;-64
2023/05/13 05:25:35;;;;;;;8.27;4.80;;;;;;;;;;4994960;28;20030;-64
2023/05/13 05:28:03;;;;;;;9.20;4.00;;;;;;;;;;5008474;28;20394;-66
2023/05/13 05:30:31;;;;;;;10.50;4.25;;;;;;;;;;5015780;28;20026;-66
2023/05/13 05:32:58;;;;;;;9.13;4.22;;;;;;;;;;5015827;28;20022;-65
2023/05/13 05:35:23;;;;;;;10.55;3.67;;;;;;;;;;5015861;28;20029;-65
2023/05/13 05:37:49;;;;;;;12.73;3.78;;;;;;;;;;4997696;28;20073;-64
2023/05/13 05:40:14;;;;;;;7.57;3.83;;;;;;;;;;4995539;28;20344;-67
2023/05/13 05:42:39;;;;;;;8.60;3.95;;;;;;;;;;4996021;28;20105;-67
2023/05/13 05:45:05;;;;;;;12.02;4.28;;;;;;;;;;4996106;28;20018;-67
2023/05/13 05:47:31;;;;;;;12.40;3.92;;;;;;;;;;4995840;28;20493;-65
2023/05/13 05:49:56;;;;;;;6.25;4.05;;;;;;;;;;4996182;28;20031;-65
2023/05/13 05:52:22;;;;;;;9.93;4.10;;;;;;;;;;4996151;28;20030;-64
2023/05/13 05:54:47;;;;;;;4.35;3.50;;;;;;;;;;4995589;28;20380;-65
2023/05/13 05:57:12;;;;;;;10.88;4.10;;;;;;;;;;4995629;28;20472;-64
2023/05/13 05:59:38;;;;;;;8.05;4.10;;;;;;;;;;4991480;28;20035;-64
2023/05/13 06:02:03;;;;;;;7.68;3.80;;;;;;;;;;4976284;28;20048;-64
2023/05/13 06:04:29;;;;;;;8.57;3.72;;;;;;;;;;4976286;28;20027;-64
2023/05/13 06:06:54;;;;;;;11.52;4.30;;;;;;;;;;4976202;28;20018;-65
2023/05/13 06:09:20;;;;;;;8.20;3.97;;;;;;;;;;4975862;28;20031;-65
2023/05/13 06:11:45;;;;;;;13.60;4.18;;;;;;;;;;4976391;28;20516;-64
2023/05/13 06:14:11;;;;;;;10.23;4.25;;;;;;;;;;4976433;28;20037;-64
2023/05/13 06:16:36;;;;;;;8.85;3.95;;;;;;;;;;4976258;28;20027;-64
2023/05/13 06:19:02;;;;;;;9.07;4.28;;;;;;;;;;4976230;28;20041;-65
2023/05/13 06:21:27;;;;;;;10.43;4.20;;;;;;;;;;4987937;28;20035;-67
2023/05/13 06:23:53;;;;;;;11.65;3.95;;;;;;;;;;4995397;28;20026;-64
2023/05/13 06:26:18;;;;;;;7.57;4.00;;;;;;;;;;4995496;28;20072;-65
2023/05/13 06:28:43;;;;;;;7.43;3.80;;;;;;;;;;5002656;28;20102;-65
2023/05/13 06:31:09;;;;;;;12.15;3.72;;;;;;;;;;5014943;28;20118;-67
2023/05/13 06:33:35;;;;;;;7.35;4.22;;;;;;;;;;5015186;28;20157;-67
2023/05/13 06:36:00;;;;;;;6.78;3.90;;;;;;;;;;5010910;28;20048;-67
2023/05/13 06:38:25;;;;;;;12.77;4.45;;;;;;;;;;4994948;28;20022;-68
2023/05/13 06:40:51;;;;;;;9.35;4.40;;;;;;;;;;4995472;28;20357;-68
2023/05/13 06:43:17;;;;;;;6.85;4.15;;;;;;;;;;4995225;28;20030;-68
2023/05/13 06:45:42;;;;;;;10.45;4.20;;;;;;;;;;4995158;28;20050;-66
2023/05/13 06:48:08;;;;;;;7.05;3.83;;;;;;;;;;4994892;28;20062;-67
2023/05/13 06:50:33;;;;;;;7.53;4.10;;;;;;;;;;4995084;28;20026;-67
2023/05/13 06:52:59;;;;;;;10.82;3.97;;;;;;;;;;4991221;28;20030;-68
2023/05/13 06:55:24;;;;;;;13.63;4.38;;;;;;;;;;4994592;28;20053;-67
2023/05/13 06:57:50;;;;;;;7.65;4.05;;;;;;;;;;4988234;28;20081;-67
2023/05/13 07:00:16;;;;;;;10.48;3.95;;;;;;;;;;4990929;28;20027;-66
2023/05/13 07:02:42;;;;;;;13.05;3.90;;;;;;;;;;4988508;28;20029;-67
2023/05/13 07:05:08;;;;;;;9.85;3.80;;;;;;;;;;4992929;28;20025;-68
2023/05/13 07:07:34;;;;;;;8.32;3.90;;;;;;;;;;4989440;28;20018;-67
2023/05/13 07:10:00;;;;;;;6.28;3.67;;;;;;;;;;4989367;28;20085;-68
2023/05/13 07:12:25;;;;;;;16.08;4.20;;;;;;;;;;4988154;28;20023;-67
2023/05/13 07:14:51;;;;;;;7.30;3.10;;;;;;;;;;4991145;28;20460;-67
2023/05/13 07:17:16;;;;;;;6.80;3.72;;;;;;;;;;4992458;28;20476;-69
2023/05/13 07:19:42;;;;;;;12.02;4.05;;;;;;;;;;4988900;28;20061;-67
2023/05/13 07:22:07;;;;;;;9.23;3.72;;;;;;;;;;5004436;28;20510;-66
2023/05/13 07:24:32;;;;;;;10.95;3.72;;;;;;;;;;4999095;28;20022;-66
2023/05/13 07:26:58;;;;;;;6.75;3.65;;;;;;;;;;4995363;28;20046;-66
2023/05/13 07:29:24;;;;;;;14.02;3.90;;;;;;;;;;5008605;28;20022;-64
2023/05/13 07:31:49;;;;;;;10.00;5.80;;;;;;;;;;5002310;28;20049;-64
2023/05/13 07:34:15;;;;;;;20.45;9.43;;;;;;;;;;5001496;28;20146;-65
2023/05/13 07:36:40;;;;;;;5.15;3.40;;;;;;;;;;5000297;28;20026;-64
2023/05/13 07:39:07;;;;;;;10.02;3.60;;;;;;;;;;4995750;28;20027;-64
2023/05/13 07:41:33;;;;;;;10.32;3.50;;;;;;;;;;5013122;28;20029;-65
2023/05/13 07:43:58;;;;;;;8.63;3.63;;;;;;;;;;5007396;28;20029;-64
2023/05/13 07:46:24;;;;;;;7.40;3.28;;;;;;;;;;4993854;28;20034;-64
2023/05/13 07:48:49;;;;;;;5.70;3.03;;;;;;;;;;4991857;28;20033;-64
2023/05/13 07:51:17;;;;;;;9.75;3.17;;;;;;;;;;4992455;28;20033;-64
2023/05/13 07:53:44;;;;;;;7.85;3.28;;;;;;;;;;4993790;28;20022;-64
2023/05/13 07:56:09;;;;;;;9.10;3.13;;;;;;;;;;4993508;28;20058;-66
2023/05/13 07:58:36;;;;;;;7.75;3.20;;;;;;;;;;4992179;28;20076;-66
2023/05/13 08:01:02;;;;;;;7.90;3.20;;;;;;;;;;4993413;28;20469;-65
2023/05/13 08:03:28;;;;;;;5.75;3.13;;;;;;;;;;4993829;28;20026;-65
2023/05/13 08:05:53;;;;;;;8.60;3.40;;;;;;;;;;4993496;28;20080;-66
2023/05/13 08:08:19;;;;;;;7.07;3.20;;;;;;;;;;4993168;28;20034;-66
2023/05/13 08:10:44;;;;;;;6.07;3.50;;;;;;;;;;5010761;28;20076;-64
2023/05/13 08:13:09;;;;;;;5.90;3.05;;;;;;;;;;5012277;28;20485;-65
2023/05/13 08:15:35;;;;;;;5.32;2.90;;;;;;;;;;4993530;28;20018;-64
2023/05/13 08:18:01;;;;;;;6.05;3.13;;;;;;;;;;4993308;28;20027;-64
2023/05/13 08:20:28;;;;;;;11.20;2.83;;;;;;;;;;4992391;28;20053;-64
2023/05/13 08:22:55;;;;;;;4.20;2.50;;;;;;;;;;4997852;28;20030;-65
2023/05/13 08:25:21;;;;;;;7.95;2.70;;;;;;;;;;5001623;28;20503;-64
2023/05/13 08:27:46;;;;;;;6.78;2.90;;;;;;;;;;5012783;28;20034;-66
2023/05/13 08:30:12;;;;;;;4.13;2.40;;;;;;;;;;5009382;28;20077;-66
2023/05/13 08:32:39;;;;;;;5.15;1.98;;;;;;;;;;4986567;28;20603;-63
2023/05/13 08:35:05;;;;;;;5.05;2.70;;;;;;;;;;4987883;28;20023;-64
2023/05/13 08:37:30;;;;;;;3.65;2.17;;;;;;;;;;4992063;28;20023;-67
2023/05/13 08:39:58;;;;;;;4.20;2.03;;;;;;;;;;4989599;28;20026;-65
2023/05/13 08:42:26;;;;;;;4.13;2.22;;;;;;;;;;4986341;28;20505;-64
2023/05/13 08:44:52;;;;;;;6.43;2.58;;;;;;;;;;4978349;28;20057;-65
2023/05/13 08:47:35;;;;;;;4.20;2.63;;;;;;;;;;4981969;28;20113;-66
2023/05/13 08:50:01;;;;;;;6.28;2.78;;;;;;;;;;4983728;28;20058;-64
2023/05/13 08:52:27;;;;;;;4.35;2.40;;;;;;;;;;4982427;28;20058;-65
2023/05/13 08:54:53;;;;;;;4.57;2.65;;;;;;;;;;4982886;28;20031;-63
2023/05/13 08:57:18;;;;;;;4.60;2.42;;;;;;;;;;4983763;28;20480;-66
2023/05/13 08:59:44;;;;;;;5.72;2.78;;;;;;;;;;4983173;28;20042;-63
2023/05/13 09:02:10;;;;;;;7.50;2.90;;;;;;;;;;4986707;28;20014;-64
2023/05/13 09:04:38;;;;;;;3.67;2.08;;;;;;;;;;4988414;28;20488;-63
2023/05/13 09:07:07;;;;;;;4.82;2.42;;;;;;;;;;4990613;28;20492;-63
2023/05/13 09:09:32;;;;;;;5.37;2.47;;;;;;;;;;4985823;28;20361;-64
2023/05/13 09:11:58;;;;;;;6.40;2.53;;;;;;;;;;4987622;28;20026;-63
2023/05/13 09:14:27;;;;;;;4.97;2.40;;;;;;;;;;4994594;28;20153;-63
2023/05/13 09:16:56;;;;;;;4.77;2.70;;;;;;;;;;4996486;28;20057;-66
2023/05/13 09:19:23;;;;;;;6.35;2.47;;;;;;;;;;4996547;28;20374;-66
2023/05/13 09:21:49;;;;;;;10.40;2.70;;;;;;;;;;4996559;28;20129;-63
2023/05/13 09:24:20;;;;;;;6.85;2.15;;;;;;;;;;4996257;28;20122;-64
2023/05/13 09:26:47;;;;;;;6.85;2.50;;;;;;;;;;4996110;28;20352;-65
2023/05/13 09:29:16;;;;;;;7.03;2.20;;;;;;;;;;4996418;28;20041;-65
2023/05/13 09:31:47;;;;;;;4.80;2.37;;;;;;;;;;5001126;28;20059;-65
2023/05/13 09:34:14;;;;;;;7.80;2.25;;;;;;;;;;5016081;28;20081;-65
2023/05/13 09:36:40;;;;;;;6.25;2.30;;;;;;;;;;5007343;28;20030;-66
2023/05/13 09:39:05;;;;;;;5.15;2.40;;;;;;;;;;4996080;28;20460;-68
2023/05/13 09:41:31;;;;;;;7.20;2.33;;;;;;;;;;4995964;28;20034;-64
2023/05/13 09:43:57;;;;;;;4.65;2.50;;;;;;;;;;4995902;28;20022;-64
2023/05/13 09:46:24;;;;;;;6.82;2.30;;;;;;;;;;4995357;28;20085;-64
2023/05/13 09:48:54;;;;;;;4.25;1.90;;;;;;;;;;4995994;28;20515;-65
2023/05/13 09:51:25;;;;;;;4.05;2.05;;;;;;;;;;4995692;28;20047;-64
2023/05/13 09:53:51;;;;;;;7.18;2.40;;;;;;;;;;4995886;28;20030;-64
2023/05/13 09:56:21;;;;;;;5.45;2.15;;;;;;;;;;4994168;28;20038;-64
2023/05/13 09:58:51;;;;;;;8.25;2.40;;;;;;;;;;4995702;28;20018;-65
2023/05/13 10:01:16;;;;;;;9.35;2.78;;;;;;;;;;4995499;28;20030;-66
2023/05/13 10:03:43;;;;;;;8.15;2.72;;;;;;;;;;4986309;28;20368;-64
2023/05/13 10:06:08;;;;;;;5.32;2.60;;;;;;;;;;4975968;28;20038;-64
2023/05/13 10:08:34;;;;;;;5.53;2.95;;;;;;;;;;4975801;28;20073;-65
2023/05/13 10:11:01;;;;;;;8.25;2.63;;;;;;;;;;4975229;28;20027;-65
2023/05/13 10:13:28;;;;;;;6.50;2.38;;;;;;;;;;4979107;28;20014;-66
2023/05/13 10:15:54;;;;;;;6.25;2.38;;;;;;;;;;4995001;28;20121;-65
2023/05/13 10:18:22;;;;;;;5.65;2.80;;;;;;;;;;4994005;28;20137;-66
2023/05/13 10:20:54;;;;;;;11.82;2.50;;;;;;;;;;4995026;28;20507;-64
2023/05/13 10:23:21;;;;;;;6.03;2.70;;;;;;;;;;4995305;28;20034;-66
2023/05/13 10:25:47;;;;;;;6.15;2.20;;;;;;;;;;4995141;28;20497;-64
2023/05/13 10:28:14;;;;;;;9.57;2.63;;;;;;;;;;4995154;28;20042;-66
2023/05/13 10:30:40;;;;;;;7.78;2.67;;;;;;;;;;4994861;28;20027;-64
2023/05/13 10:33:06;;;;;;;10.20;2.78;;;;;;;;;;5004356;28;20113;-65
2023/05/13 10:35:39;;;;;;;9.48;3.10;;;;;;;;;;5004318;28;20118;-66
2023/05/13 10:38:19;;;;;;;5.57;2.30;;;;;;;;;;4975502;28;20027;-66
2023/05/13 10:41:08;;;;;;;3.38;2.10;;;;;;;;;;4975595;28;20085;-68
2023/05/13 10:43:34;;;;;;;9.00;2.42;;;;;;;;;;4975524;28;20022;-68
2023/05/13 10:46:05;;;;;;;4.88;2.42;;;;;;;;;;4975091;28;20114;-65
2023/05/13 10:48:48;;;;;;;6.35;2.65;;;;;;;;;;4975477;28;20027;-69
2023/05/13 10:51:16;;;;;;;6.20;2.42;;;;;;;;;;4975325;28;20362;-69
2023/05/13 10:53:56;;;;;;;6.55;2.38;;;;;;;;;;4975333;28;20014;-69
2023/05/13 10:56:24;;;;;;;4.10;2.08;;;;;;;;;;4974952;28;20306;-69
2023/05/13 10:59:05;;;;;;;5.00;2.40;;;;;;;;;;4974991;28;20030;-69
2023/05/13 11:01:42;;;;;;;8.50;2.47;;;;;;;;;;4975226;28;20022;-69
2023/05/13 11:04:12;;;;;;;7.10;2.13;;;;;;;;;;4984882;28;20022;-67
2023/05/13 11:06:40;;;;;;;5.10;2.15;;;;;;;;;;4994382;28;20432;-69
2023/05/13 11:09:13;;;;;;;4.68;2.60;;;;;;;;;;4993067;28;20435;-67
2023/05/13 11:11:39;;;;;;;3.97;1.98;;;;;;;;;;4993700;28;20126;-65
2023/05/13 11:14:19;;;;;;;6.13;2.20;;;;;;;;;;4992357;28;20026;-66
2023/05/13 11:17:11;;;;;;;3.40;2.25;;;;;;;;;;4992865;28;20033;-67
2023/05/13 11:19:48;;;;;;;7.25;2.20;;;;;;;;;;4993266;28;20081;-69
2023/05/13 11:22:19;;;;;;;7.15;2.70;;;;;;;;;;4993495;28;20035;-66
2023/05/13 11:25:01;;;;;;;5.38;2.08;;;;;;;;;;4994195;28;20036;-69
2023/05/13 11:27:26;;;;;;;7.07;2.50;;;;;;;;;;4993763;28;20018;-68
2023/05/13 11:29:55;;;;;;;3.08;1.77;;;;;;;;;;4993813;28;20033;-65
2023/05/13 11:32:58;;;;;;;6.07;2.30;;;;;;;;;;4993729;28;20096;-67
2023/05/13 11:35:26;;;;;;;6.32;2.40;;;;;;;;;;4974395;28;20026;-64
2023/05/13 11:37:51;;;;;;;9.85;2.63;;;;;;;;;;4992097;28;20077;-72
2023/05/13 11:40:24;;;;;;;5.05;2.70;;;;;;;;;;4993736;28;20447;-67
2023/05/13 11:42:49;;;;;;;6.72;2.00;;;;;;;;;;4993467;28;20085;-68
2023/05/13 11:45:19;;;;;;;4.75;2.00;;;;;;;;;;4993726;28;20030;-72
2023/05/13 11:47:45;;;;;;;5.97;2.42;;;;;;;;;;4993495;28;20387;-72
2023/05/13 11:50:39;;;;;;;9.50;2.50;;;;;;;;;;4993405;28;20039;-72
2023/05/13 11:53:05;;;;;;;7.85;2.55;;;;;;;;;;4971867;28;20034;-69
2023/05/13 11:55:35;;;;;;;3.00;2.00;;;;;;;;;;4972192;28;20424;-71
2023/05/13 11:58:01;;;;;;;3.67;2.35;;;;;;;;;;4971706;28;20058;-70
2023/05/13 12:00:32;;;;;;;4.60;2.50;;;;;;;;;;4972063;28;20063;-63
2023/05/13 12:02:59;;;;;;;;;;;;;;;;;;4972295;28;20037;-66
2023/05/13 12:05:25;;;;;;;6.93;2.53;;;;;;;;;;4960729;28;20063;-66
2023/05/13 12:07:51;;;;;;;4.88;2.35;;;;;;;;;;4952054;29;20035;-67
2023/05/13 12:10:16;;;;;;;5.03;2.40;;;;;;;;;;4952339;29;20142;-64
2023/05/13 12:12:44;;;;;;;7.38;2.33;;;;;;;;;;4952469;29;20031;-64
2023/05/13 12:15:15;;;;;;;5.22;2.97;;;;;;;;;;4969128;28;20074;-65
2023/05/13 12:17:41;;;;;;;3.65;2.03;;;;;;;;;;4971691;28;20583;-64
2023/05/13 12:20:12;;;;;;;8.07;2.30;;;;;;;;;;4971002;28;20059;-64
2023/05/13 12:22:43;;;;;;;6.68;2.30;;;;;;;;;;4971767;28;20121;-64
2023/05/13 12:25:33;;;;;;;3.53;2.10;;;;;;;;;;4971714;28;20054;-63
2023/05/13 12:28:05;;;;;;;6.00;2.65;;;;;;;;;;4971440;28;20049;-65
2023/05/13 12:30:38;;;;;;;7.80;2.20;;;;;;;;;;4991660;28;20118;-64
2023/05/13 12:33:04;;;;;;;4.07;2.20;;;;;;;;;;4993047;28;20026;-64
2023/05/13 12:35:30;;;;;;;6.38;2.20;;;;;;;;;;5007010;28;20501;-63
2023/05/13 12:38:16;;;;;;;7.20;3.00;;;;;;;;;;4993813;28;20042;-64
2023/05/13 12:40:46;;;;;;;3.15;1.73;;;;;;;;;;4993096;28;20058;-64
2023/05/13 12:43:12;;;;;;;6.00;2.13;;;;;;;;;;4992991;28;20030;-63
2023/05/13 12:45:40;;;;;;;6.47;2.53;;;;;;;;;;4993024;28;20105;-63
2023/05/13 12:48:06;;;;;;;7.80;2.70;;;;;;;;;;4992894;28;20033;-65
2023/05/13 12:50:31;;;;;;;6.97;2.83;;;;;;;;;;4993132;28;20105;-68
2023/05/13 12:52:58;;;;;;;6.85;1.95;;;;;;;;;;4992992;28;20452;-65
2023/05/13 12:55:26;;;;;;;6.03;2.17;;;;;;;;;;4992642;28;20058;-65
2023/05/13 12:57:57;;;;;;;13.43;2.45;;;;;;;;;;4992716;28;20496;-63
2023/05/13 13:00:23;;;;;;;3.50;2.00;;;;;;;;;;4992607;28;20134;-64
2023/05/13 13:02:49;;;;;;;4.40;2.15;;;;;;;;;;4992886;28;20102;-63
2023/05/13 13:05:14;;;;;;;7.10;2.00;;;;;;;;;;4992388;28;20043;-65
2023/05/13 13:07:41;;;;;;;3.72;1.73;;;;;;;;;;4972896;28;20023;-64
2023/05/13 13:10:07;;;;;;;3.15;2.10;;;;;;;;;;4973221;28;20066;-64
2023/05/13 13:12:33;;;;;;;11.13;2.40;;;;;;;;;;4973231;28;20031;-63
2023/05/13 13:14:58;;;;;;;5.00;2.13;;;;;;;;;;4988633;28;20038;-63
2023/05/13 13:17:24;;;;;;;6.95;2.47;;;;;;;;;;4992725;28;20022;-65
2023/05/13 13:19:49;;;;;;;6.07;2.20;;;;;;;;;;4992295;28;20097;-64
2023/05/13 13:22:14;;;;;;;7.85;2.40;;;;;;;;;;4992571;28;20034;-63
2023/05/13 13:24:40;;;;;;;5.95;1.70;;;;;;;;;;4992112;28;20015;-63
2023/05/13 13:27:05;;;;;;;3.97;2.10;;;;;;;;;;4992435;28;20452;-65
2023/05/13 13:29:31;;;;;;;5.70;2.13;;;;;;;;;;4992633;28;20054;-64
2023/05/13 13:31:56;;;;;;;6.75;1.90;;;;;;;;;;4992513;28;20117;-64
2023/05/13 13:34:22;;;;;;;4.70;2.15;;;;;;;;;;4992444;28;20073;-66
2023/05/13 13:36:47;;;;;;;5.28;2.38;;;;;;;;;;4998436;28;20030;-65
2023/05/13 13:39:13;;;;;;;5.40;2.17;;;;;;;;;;4992238;28;20134;-65
2023/05/13 13:41:38;;;;;;;5.22;2.20;;;;;;;;;;4992681;28;20030;-67
2023/05/13 13:44:04;;;;;;;3.45;1.80;;;;;;;;;;4992434;28;20042;-67
2023/05/13 13:46:29;;;;;;;3.58;2.20;;;;;;;;;;4993313;28;20061;-70
2023/05/13 13:48:55;;;;;;;5.13;2.30;;;;;;;;;;4994714;28;20030;-66
2023/05/13 13:51:20;;;;;;;6.38;1.85;;;;;;;;;;4996095;28;20376;-67
2023/05/13 13:53:45;;;;;;;2.80;1.98;;;;;;;;;;4995861;28;20498;-66
2023/05/13 13:56:11;;;;;;;9.43;2.17;;;;;;;;;;4995933;28;20118;-69
2023/05/13 13:58:36;;;;;;;5.18;1.60;;;;;;;;;;4995889;28;20476;-68
2023/05/13 14:01:02;;;;;;;3.90;2.35;;;;;;;;;;4994823;28;20042;-67
2023/05/13 14:03:27;;;;;;;6.60;2.70;;;;;;;;;;4996024;28;20019;-65
2023/05/13 14:05:54;;;;;;;3.55;1.80;;;;;;;;;;4995889;28;20030;-65
2023/05/13 14:08:19;;;;;;;3.05;1.95;;;;;;;;;;4979874;28;20490;-67
2023/05/13 14:10:45;;;;;;;8.90;2.35;;;;;;;;;;4975987;28;20117;-67
2023/05/13 14:13:10;;;;;;;6.65;2.30;;;;;;;;;;4976879;28;20082;-66
2023/05/13 14:15:37;;;;;;;6.55;1.80;;;;;;;;;;4995403;28;20029;-69
2023/05/13 14:18:07;;;;;;;6.10;1.83;;;;;;;;;;4995236;28;20029;-66
2023/05/13 14:20:34;;;;;;;6.57;2.30;;;;;;;;;;4995130;28;20046;-66
2023/05/13 14:23:00;;;;;;;5.57;2.17;;;;;;;;;;4995129;28;20027;-65
2023/05/13 14:25:26;;;;;;;6.03;2.35;;;;;;;;;;4995120;28;20030;-64
2023/05/13 14:27:52;;;;;;;3.75;1.90;;;;;;;;;;4993985;28;20037;-65
2023/05/13 14:30:17;;;;;;;5.82;2.20;;;;;;;;;;4995020;28;20034;-64
2023/05/13 14:32:44;;;;;;;5.40;2.20;;;;;;;;;;4995318;28;20086;-65
2023/05/13 14:35:10;;;;;;;6.32;2.10;;;;;;;;;;4995060;28;20105;-65
2023/05/13 14:37:36;;;;;;;7.85;2.20;;;;;;;;;;4991119;28;20108;-63
2023/05/13 14:40:01;;;;;;;6.10;2.10;;;;;;;;;;4994269;28;20062;-65